createdAt,value
2018-09-28T00:00:51.159Z,81.74
2018-09-28T00:03:18.034Z,82.41
2018-09-28T00:05:44.914Z,81.79
2018-09-28T00:08:11.840Z,82.27
2018-09-28T00:10:38.698Z,82.68
2018-09-28T00:13:05.522Z,82.99
2018-09-28T00:15:32.414Z,83.47
2018-09-28T00:17:59.266Z,82.88
2018-09-28T00:20:27.146Z,83.27
2018-09-28T00:22:53.974Z,82.21
2018-09-28T00:25:20.854Z,83.14
2018-09-28T00:27:47.754Z,80.98
2018-09-28T00:30:14.678Z,84.37
2018-09-28T00:32:41.553Z,83.68
2018-09-28T00:35:08.501Z,83.95
2018-09-28T00:37:35.442Z,83.08
2018-09-28T00:40:02.298Z,83.79
2018-09-28T00:42:29.146Z,83.64
2018-09-28T00:44:55.986Z,82.40
2018-09-28T00:47:23.903Z,82.82
2018-09-28T00:49:50.833Z,83.48
2018-09-28T00:52:17.686Z,82.60
2018-09-28T00:54:44.555Z,84.43
2018-09-28T00:57:11.391Z,83.05
2018-09-28T00:59:38.269Z,85.41
2018-09-28T01:02:05.218Z,84.65
2018-09-28T01:04:32.078Z,85.19
2018-09-28T01:06:58.897Z,84.31
2018-09-28T01:09:25.785Z,85.36
2018-09-28T01:11:52.665Z,84.27
2018-09-28T01:14:19.599Z,84.90
2018-09-28T01:16:46.438Z,85.06
2018-09-28T01:19:13.302Z,84.26
2018-09-28T01:21:40.146Z,85.26
2018-09-28T01:24:07.017Z,84.91
2018-09-28T01:26:33.870Z,84.61
2018-09-28T01:29:00.699Z,84.80
2018-09-28T01:31:28.839Z,85.75
2018-09-28T01:33:55.854Z,85.36
2018-09-28T01:36:22.743Z,85.78
2018-09-28T01:38:49.682Z,86.82
2018-09-28T01:41:16.518Z,86.96
2018-09-28T01:43:43.416Z,86.34
2018-09-28T01:46:10.398Z,87.55
2018-09-28T01:48:37.418Z,86.65
2018-09-28T01:51:04.262Z,87.63
2018-09-28T01:53:31.129Z,87.30
2018-09-28T01:55:58.106Z,86.42
2018-09-28T01:58:25.037Z,86.50
2018-09-28T02:00:51.898Z,86.85
2018-09-28T02:03:18.754Z,86.27
2018-09-28T02:05:45.702Z,87.94
2018-09-28T02:08:12.654Z,88.99
2018-09-28T02:10:39.530Z,88.40
2018-09-28T02:13:06.486Z,88.01
2018-09-28T02:15:33.439Z,87.80
2018-09-28T02:18:00.390Z,87.45
2018-09-28T02:20:27.346Z,86.31
2018-09-28T02:22:54.209Z,86.43
2018-09-28T02:25:21.056Z,86.21
2018-09-28T02:27:48.027Z,86.38
2018-09-28T02:30:14.899Z,87.05
2018-09-28T02:32:41.825Z,86.39
2018-09-28T02:35:08.778Z,86.48
2018-09-28T02:37:35.646Z,87.01
2018-09-28T02:40:02.603Z,86.36
2018-09-28T02:42:29.569Z,86.34
2018-09-28T02:44:56.523Z,86.45
2018-09-28T02:47:23.415Z,86.62
2018-09-28T02:49:50.315Z,84.61
2018-09-28T02:52:17.219Z,85.60
2018-09-28T02:54:45.174Z,85.14
2018-09-28T02:57:12.084Z,85.92
2018-09-28T02:59:38.990Z,85.67
2018-09-28T03:02:05.925Z,86.04
2018-09-28T03:04:32.924Z,86.18
2018-09-28T03:06:59.859Z,86.27
2018-09-28T03:09:26.738Z,85.96
2018-09-28T03:11:53.658Z,85.65
2018-09-28T03:14:20.622Z,86.20
2018-09-28T03:16:47.579Z,87.03
2018-09-28T03:19:14.498Z,86.24
2018-09-28T03:21:41.382Z,86.21
2018-09-28T03:24:08.260Z,86.28
2018-09-28T03:26:35.197Z,85.46
2018-09-28T03:29:02.205Z,86.35
2018-09-28T03:31:29.178Z,85.83
2018-09-28T03:33:56.078Z,86.00
2018-09-28T03:36:23.038Z,86.20
2018-09-28T03:38:50.013Z,86.42
2018-09-28T03:41:16.834Z,86.94
2018-09-28T03:43:43.690Z,87.48
2018-09-28T03:46:10.558Z,87.41
2018-09-28T03:48:37.598Z,87.73
2018-09-28T03:51:04.462Z,87.92
2018-09-28T03:53:31.314Z,87.67
2018-09-28T03:55:58.170Z,88.35
2018-09-28T03:58:26.034Z,88.62
2018-09-28T04:00:52.922Z,87.86
2018-09-28T04:03:19.851Z,88.32
2018-09-28T04:05:46.858Z,87.99
2018-09-28T04:08:13.831Z,87.03
2018-09-28T04:10:40.841Z,86.83
2018-09-28T04:13:07.783Z,88.00
2018-09-28T04:15:34.639Z,87.83
2018-09-28T04:18:01.574Z,87.35
2018-09-28T04:20:28.461Z,88.00
2018-09-28T04:22:55.330Z,86.06
2018-09-28T04:25:22.257Z,87.65
2018-09-28T04:27:49.125Z,86.80
2018-09-28T04:30:16.002Z,86.44
2018-09-28T04:32:42.876Z,87.62
2018-09-28T04:35:10.817Z,87.42
2018-09-28T04:37:37.686Z,86.24
2018-09-28T04:40:04.692Z,86.47
2018-09-28T04:42:31.583Z,87.75
2018-09-28T04:44:58.434Z,85.00
2018-09-28T04:47:25.298Z,87.71
2018-09-28T04:49:52.151Z,87.80
2018-09-28T04:52:18.994Z,86.96
2018-09-28T04:54:45.861Z,85.46
2018-09-28T04:57:12.722Z,86.11
2018-09-28T04:59:39.659Z,88.70
2018-09-28T05:02:06.533Z,89.13
2018-09-28T05:04:33.392Z,89.48
2018-09-28T05:07:01.294Z,89.63
2018-09-28T05:09:28.253Z,88.49
2018-09-28T05:11:56.088Z,87.10
2018-09-28T05:14:22.938Z,87.93
2018-09-28T05:16:49.787Z,87.41
2018-09-28T05:19:17.677Z,87.88
2018-09-28T05:21:44.587Z,86.70
2018-09-28T05:24:11.486Z,87.09
2018-09-28T05:26:38.315Z,87.92
2018-09-28T05:29:05.198Z,87.35
2018-09-28T05:31:32.211Z,86.97
2018-09-28T05:33:58.906Z,86.81
2018-09-28T05:36:25.742Z,87.32
2018-09-28T05:38:52.670Z,86.05
2018-09-28T05:41:19.588Z,86.32
2018-09-28T05:43:46.499Z,86.74
2018-09-28T05:46:14.371Z,88.11
2018-09-28T05:48:41.196Z,89.93
2018-09-28T05:51:08.133Z,89.21
2018-09-28T05:53:35.110Z,90.05
2018-09-28T05:56:02.133Z,89.22
2018-09-28T05:58:35.023Z,86.23
2018-09-28T06:01:07.707Z,86.97
2018-09-28T06:03:38.266Z,88.05
2018-09-28T06:06:05.098Z,87.57
2018-09-28T06:08:31.984Z,87.54
2018-09-28T06:10:58.813Z,87.44
2018-09-28T06:13:25.694Z,87.79
2018-09-28T06:15:52.674Z,87.68
2018-09-28T06:18:19.707Z,87.28
2018-09-28T06:20:46.865Z,88.59
2018-09-28T06:23:13.723Z,87.65
2018-09-28T06:25:40.627Z,89.42
2018-09-28T06:28:07.525Z,88.34
2018-09-28T06:30:34.442Z,87.25
2018-09-28T06:33:01.275Z,87.76
2018-09-28T06:35:28.219Z,86.54
2018-09-28T06:37:55.098Z,85.89
2018-09-28T06:40:25.811Z,86.05
2018-09-28T06:42:52.807Z,86.16
2018-09-28T06:45:19.782Z,85.53
2018-09-28T06:47:46.700Z,84.45
2018-09-28T06:50:13.514Z,82.21
2018-09-28T06:52:40.398Z,83.14
2018-09-28T06:55:07.291Z,81.04
2018-09-28T06:57:34.119Z,83.45
2018-09-28T07:00:03.191Z,85.41
2018-09-28T07:02:30.066Z,85.62
2018-09-28T07:04:56.974Z,83.99
2018-09-28T07:07:23.851Z,83.02
2018-09-28T07:09:50.864Z,83.25
2018-09-28T07:12:17.971Z,83.89
2018-09-28T07:14:46.808Z,83.87
2018-09-28T07:17:13.760Z,82.50
2018-09-28T07:19:40.610Z,81.60
2018-09-28T07:22:09.512Z,82.58
2018-09-28T07:24:36.469Z,81.26
2018-09-28T07:27:03.230Z,80.73
2018-09-28T07:29:30.055Z,80.71
2018-09-28T07:31:56.931Z,79.95
2018-09-28T07:34:23.906Z,78.61
2018-09-28T07:36:51.996Z,79.50
2018-09-28T07:39:19.979Z,79.30
2018-09-28T07:41:48.040Z,78.68
2018-09-28T07:44:17.163Z,78.36
2018-09-28T07:46:44.914Z,77.28
2018-09-28T07:49:12.639Z,76.64
2018-09-28T07:51:40.210Z,76.13
2018-09-28T07:54:07.833Z,76.33
2018-09-28T07:56:35.223Z,74.67
2018-09-28T07:59:03.170Z,74.82
2018-09-28T08:01:30.714Z,74.95
2018-09-28T08:03:59.216Z,75.10
2018-09-28T08:06:26.671Z,74.12
2018-09-28T08:08:54.505Z,73.52
2018-09-28T08:11:22.162Z,71.50
2018-09-28T08:13:51.913Z,71.82
2018-09-28T08:16:18.755Z,71.51
2018-09-28T08:18:45.602Z,70.48
2018-09-28T08:21:12.456Z,68.61
2018-09-28T08:23:39.292Z,69.37
2018-09-28T08:26:06.213Z,69.63
2018-09-28T08:28:33.134Z,70.17
2018-09-28T08:31:01.006Z,69.89
2018-09-28T08:33:27.852Z,68.03
2018-09-28T08:35:54.689Z,67.87
2018-09-28T08:38:21.587Z,67.64
2018-09-28T08:40:48.522Z,65.65
2018-09-28T08:43:16.411Z,66.00
2018-09-28T08:45:43.370Z,65.45
2018-09-28T08:48:10.218Z,63.08
2018-09-28T08:50:38.110Z,63.93
2018-09-28T08:53:04.960Z,63.87
2018-09-28T08:55:31.806Z,61.66
2018-09-28T08:57:58.665Z,62.50
2018-09-28T09:00:25.519Z,62.21
2018-09-28T09:02:52.374Z,60.90
2018-09-28T09:05:20.171Z,60.99
2018-09-28T09:07:47.106Z,60.98
2018-09-28T09:10:16.017Z,60.40
2018-09-28T09:12:43.893Z,59.96
2018-09-28T09:15:10.762Z,60.25
2018-09-28T09:17:37.600Z,57.99
2018-09-28T09:20:04.456Z,57.02
2018-09-28T09:22:31.331Z,56.66
2018-09-28T09:24:58.386Z,55.42
2018-09-28T09:27:25.345Z,55.19
2018-09-28T09:29:52.182Z,56.72
2018-09-28T09:32:20.062Z,56.89
2018-09-28T09:34:47.943Z,55.15
2018-09-28T09:37:14.996Z,55.38
2018-09-28T09:39:41.851Z,54.94
2018-09-28T09:42:09.738Z,54.84
2018-09-28T09:44:36.586Z,55.29
2018-09-28T09:47:03.433Z,54.20
2018-09-28T09:49:30.291Z,52.40
2018-09-28T09:51:57.154Z,53.41
2018-09-28T09:54:24.019Z,51.70
2018-09-28T09:56:50.967Z,50.70
2018-09-28T09:59:17.839Z,50.28
2018-09-28T10:01:50.451Z,50.76
2018-09-28T10:04:17.378Z,50.52
2018-09-28T10:06:44.332Z,51.52
2018-09-28T10:09:12.710Z,51.98
2018-09-28T10:11:39.686Z,50.85
2018-09-28T10:14:06.558Z,51.38
2018-09-28T10:16:34.433Z,50.59
2018-09-28T10:19:01.391Z,50.09
2018-09-28T10:21:28.383Z,49.90
2018-09-28T10:23:55.218Z,49.54
2018-09-28T10:26:22.190Z,50.87
2018-09-28T10:28:49.111Z,49.02
2018-09-28T10:31:16.045Z,49.03
2018-09-28T10:33:42.966Z,49.94
2018-09-28T10:36:09.764Z,49.48
2018-09-28T10:38:36.613Z,49.02
2018-09-28T10:41:03.468Z,47.97
2018-09-28T10:43:30.318Z,48.14
2018-09-28T10:45:58.207Z,46.44
2018-09-28T10:48:25.070Z,47.16
2018-09-28T10:50:52.039Z,47.19
2018-09-28T10:53:18.980Z,48.17
2018-09-28T10:55:45.951Z,46.81
2018-09-28T10:58:12.844Z,46.51
2018-09-28T11:00:39.743Z,47.30
2018-09-28T11:03:06.644Z,48.07
2018-09-28T11:05:33.493Z,46.89
2018-09-28T11:08:00.614Z,46.73
2018-09-28T11:10:27.604Z,45.83
2018-09-28T11:12:55.374Z,45.71
2018-09-28T11:15:22.903Z,45.48
2018-09-28T11:17:49.686Z,46.14
2018-09-28T11:20:16.659Z,44.86
2018-09-28T11:22:44.502Z,45.37
2018-09-28T11:25:11.368Z,44.65
2018-09-28T11:27:38.243Z,45.20
2018-09-28T11:30:05.135Z,44.93
2018-09-28T11:32:32.029Z,43.84
2018-09-28T11:34:58.908Z,45.18
2018-09-28T11:37:25.854Z,43.89
2018-09-28T11:39:52.798Z,43.99
2018-09-28T11:42:19.662Z,42.55
2018-09-28T11:44:47.585Z,42.62
2018-09-28T11:47:14.486Z,42.30
2018-09-28T11:49:41.406Z,42.99
2018-09-28T11:52:08.248Z,41.96
2018-09-28T11:54:35.138Z,41.07
2018-09-28T11:57:02.014Z,42.24
2018-09-28T11:59:28.883Z,40.36
2018-09-28T12:01:55.855Z,41.88
2018-09-28T12:04:22.701Z,43.17
2018-09-28T12:06:50.022Z,42.68
2018-09-28T12:09:16.937Z,39.70
2018-09-28T12:11:43.780Z,39.30
2018-09-28T12:14:10.723Z,37.73
2018-09-28T12:16:37.640Z,38.06
2018-09-28T12:19:04.738Z,38.33
2018-09-28T12:21:32.126Z,37.81
2018-09-28T12:23:59.488Z,37.39
2018-09-28T12:26:26.498Z,36.68
2018-09-28T12:32:01.837Z,38.01
2018-09-28T12:34:28.730Z,37.55
2018-09-28T12:36:55.690Z,36.97
2018-09-28T12:39:22.669Z,37.40
2018-09-28T12:41:49.601Z,36.03
2018-09-28T12:44:16.534Z,36.17
2018-09-28T12:46:43.423Z,37.57
2018-09-28T12:49:10.585Z,38.58
2018-09-28T12:51:37.608Z,38.43
2018-09-28T12:54:04.698Z,38.70
2018-09-28T12:56:31.647Z,38.18
2018-09-28T12:59:00.152Z,37.54
2018-09-28T13:01:26.965Z,38.94
2018-09-28T13:03:54.106Z,38.37
2018-09-28T13:06:20.967Z,39.85
2018-09-28T13:08:49.333Z,37.53
2018-09-28T13:11:19.188Z,36.98
2018-09-28T13:13:46.070Z,37.28
2018-09-28T13:16:12.914Z,36.82
2018-09-28T13:18:40.218Z,35.45
2018-09-28T13:21:09.281Z,34.51
2018-09-28T13:23:36.118Z,36.24
2018-09-28T13:26:02.954Z,35.93
2018-09-28T13:28:29.812Z,35.78
2018-09-28T13:30:57.022Z,36.11
2018-09-28T13:33:27.982Z,34.69
2018-09-28T13:35:54.833Z,37.96
2018-09-28T13:38:21.914Z,36.16
2018-09-28T13:40:49.770Z,37.06
2018-09-28T13:43:16.687Z,36.10
2018-09-28T13:45:43.546Z,35.67
2018-09-28T13:48:10.398Z,37.41
2018-09-28T13:50:37.284Z,38.05
2018-09-28T13:53:04.206Z,39.66
2018-09-28T13:55:31.062Z,38.85
2018-09-28T13:57:57.908Z,37.03
2018-09-28T14:00:24.937Z,35.44
2018-09-28T14:02:53.060Z,37.63
2018-09-28T14:05:21.441Z,36.46
2018-09-28T14:07:48.314Z,32.64
2018-09-28T14:10:15.169Z,35.14
2018-09-28T14:12:42.065Z,35.10
2018-09-28T14:15:08.983Z,34.54
2018-09-28T14:17:36.009Z,34.02
2018-09-28T14:20:02.947Z,35.19
2018-09-28T14:22:29.873Z,34.05
2018-09-28T14:24:56.723Z,36.01
2018-09-28T14:27:23.706Z,36.40
2018-09-28T14:29:50.545Z,35.44
2018-09-28T14:32:17.553Z,36.76
2018-09-28T14:34:45.402Z,35.51
2018-09-28T14:37:12.299Z,35.55
2018-09-28T14:39:39.912Z,35.41
2018-09-28T14:42:07.487Z,34.30
2018-09-28T14:44:36.093Z,33.78
2018-09-28T14:47:04.714Z,33.47
2018-09-28T14:49:32.138Z,34.68
2018-09-28T14:51:58.988Z,31.14
2018-09-28T14:54:25.982Z,32.50
2018-09-28T14:56:52.962Z,33.33
2018-09-28T14:59:19.847Z,32.20
2018-09-28T15:01:46.758Z,30.88
2018-09-28T15:04:13.873Z,32.36
2018-09-28T15:06:41.056Z,31.04
2018-09-28T15:09:09.086Z,34.16
2018-09-28T15:11:36.255Z,34.39
2018-09-28T15:14:03.606Z,32.83
2018-09-28T15:16:31.044Z,32.85
2018-09-28T15:18:57.954Z,33.49
2018-09-28T15:21:24.858Z,34.20
2018-09-28T15:23:51.721Z,34.84
2018-09-28T15:26:18.642Z,36.51
2018-09-28T15:28:46.862Z,37.74
2018-09-28T15:31:15.756Z,36.95
2018-09-28T15:33:42.678Z,36.74
2018-09-28T15:36:09.578Z,38.75
2018-09-28T15:38:37.527Z,39.53
2018-09-28T15:41:04.515Z,39.00
2018-09-28T15:43:31.498Z,39.06
2018-09-28T15:45:58.405Z,39.49
2018-09-28T15:48:25.382Z,39.22
2018-09-28T15:51:00.447Z,39.55
2018-09-28T15:53:28.849Z,39.82
2018-09-28T15:55:55.879Z,39.61
2018-09-28T15:58:22.919Z,40.74
2018-09-28T16:00:49.851Z,40.91
2018-09-28T16:03:16.757Z,42.10
2018-09-28T16:05:46.134Z,43.56
2018-09-28T16:08:16.270Z,45.05
2018-09-28T16:10:44.143Z,47.67
2018-09-28T16:13:12.694Z,49.53
2018-09-28T16:15:42.058Z,53.02
2018-09-28T16:18:08.913Z,56.19
2018-09-28T16:20:35.878Z,58.27
2018-09-28T16:23:02.838Z,59.52
2018-09-28T16:25:29.762Z,61.06
2018-09-28T16:27:56.606Z,61.53
2018-09-28T16:30:25.563Z,62.95
2018-09-28T16:32:52.646Z,63.30
2018-09-28T16:35:19.536Z,64.74
2018-09-28T16:37:47.422Z,65.62
2018-09-28T16:40:14.286Z,65.45
2018-09-28T16:42:42.103Z,66.80
2018-09-28T16:45:09.411Z,67.26
2018-09-28T16:47:37.042Z,68.73
2018-09-28T16:50:04.695Z,68.65
2018-09-28T16:52:32.592Z,68.34
2018-09-28T16:54:59.500Z,68.94
2018-09-28T16:57:26.370Z,69.66
2018-09-28T16:59:53.334Z,69.37
2018-09-28T17:02:20.265Z,69.16
2018-09-28T17:04:47.156Z,69.96
2018-09-28T17:07:14.133Z,70.06
2018-09-28T17:09:40.978Z,70.44
2018-09-28T17:12:07.882Z,69.89
2018-09-28T17:14:34.773Z,70.48
2018-09-28T17:17:01.790Z,70.34
2018-09-28T17:19:28.623Z,71.14
2018-09-28T17:21:56.531Z,71.16
2018-09-28T17:24:23.425Z,71.62
2018-09-28T17:26:50.362Z,72.37
2018-09-28T17:29:17.314Z,72.25
2018-09-28T17:31:44.157Z,72.18
2018-09-28T17:34:11.059Z,72.78
2018-09-28T17:36:37.982Z,73.02
2018-09-28T17:39:07.865Z,73.47
2018-09-28T17:41:36.002Z,72.93
2018-09-28T17:44:02.930Z,74.38
2018-09-28T17:46:29.870Z,75.77
2018-09-28T17:48:56.792Z,77.36
2018-09-28T17:51:23.744Z,77.37
2018-09-28T17:53:50.718Z,79.94
2018-09-28T17:56:17.542Z,79.82
2018-09-28T17:58:46.387Z,80.10
2018-09-28T18:01:15.090Z,79.72
2018-09-28T18:03:43.042Z,79.58
2018-09-28T18:06:09.926Z,79.21
2018-09-28T18:08:36.832Z,79.56
2018-09-28T18:11:03.726Z,78.68
2018-09-28T18:13:30.654Z,78.80
2018-09-28T18:15:58.843Z,77.83
2018-09-28T18:18:25.962Z,78.20
2018-09-28T18:20:53.052Z,77.69
2018-09-28T18:23:20.578Z,76.77
2018-09-28T18:25:48.510Z,76.45
2018-09-28T18:28:15.469Z,75.11
2018-09-28T18:30:42.406Z,75.59
2018-09-28T18:33:09.274Z,75.23
2018-09-28T18:35:36.210Z,74.60
2018-09-28T18:38:03.065Z,74.73
2018-09-28T18:40:29.958Z,75.41
2018-09-28T18:42:56.974Z,74.08
2018-09-28T18:45:25.312Z,74.67
2018-09-28T18:47:52.378Z,73.73
2018-09-28T18:50:19.410Z,73.98
2018-09-28T18:52:46.251Z,74.33
2018-09-28T18:55:13.126Z,73.32
2018-09-28T18:57:40.062Z,73.79
2018-09-28T19:00:06.929Z,72.56
2018-09-28T19:02:34.097Z,72.22
2018-09-28T19:05:01.079Z,70.67
2018-09-28T19:07:29.190Z,71.87
2018-09-28T19:09:56.078Z,71.82
2018-09-28T19:12:23.526Z,71.36
2018-09-28T19:14:50.394Z,70.91
2018-09-28T19:17:17.279Z,71.50
2018-09-28T19:19:45.293Z,70.53
2018-09-28T19:22:12.459Z,69.88
2018-09-28T19:24:39.974Z,69.06
2018-09-28T19:27:07.070Z,70.12
2018-09-28T19:29:35.019Z,69.29
2018-09-28T19:32:09.458Z,68.66
2018-09-28T19:34:36.303Z,68.29
2018-09-28T19:37:03.181Z,67.62
2018-09-28T19:39:30.126Z,67.64
2018-09-28T19:41:57.082Z,67.03
2018-09-28T19:44:24.036Z,65.14
2018-09-28T19:46:50.874Z,65.69
2018-09-28T19:49:17.839Z,65.95
2018-09-28T19:51:46.036Z,64.32
2018-09-28T19:54:17.410Z,64.47
2018-09-28T19:56:44.391Z,62.99
2018-09-28T19:59:11.310Z,61.19
2018-09-28T20:01:38.930Z,62.13
2018-09-28T20:04:08.172Z,61.72
2018-09-28T20:06:35.246Z,60.19
2018-09-28T20:09:02.122Z,60.34
2018-09-28T20:11:29.072Z,59.77
2018-09-28T20:13:55.930Z,59.50
2018-09-28T20:16:22.864Z,60.24
2018-09-28T20:18:49.722Z,59.59
2018-09-28T20:21:16.588Z,59.90
2018-09-28T20:23:43.454Z,59.37
2018-09-28T20:26:10.418Z,59.90
2018-09-28T20:28:37.482Z,59.46
2018-09-28T20:31:05.010Z,60.63
2018-09-28T20:33:31.885Z,59.41
2018-09-28T20:35:58.750Z,59.42
2018-09-28T20:38:25.708Z,59.99
2018-09-28T20:40:52.717Z,59.07
2018-09-28T20:43:19.755Z,58.81
2018-09-28T20:45:47.689Z,59.29
2018-09-28T20:48:15.588Z,59.05
2018-09-28T20:50:42.646Z,59.47
2018-09-28T20:53:10.839Z,60.40
2018-09-28T20:55:37.789Z,59.95
2018-09-28T20:58:04.954Z,60.34
2018-09-28T21:00:31.839Z,59.23
2018-09-28T21:02:58.770Z,60.44
2018-09-28T21:05:25.774Z,60.07
2018-09-28T21:07:52.754Z,59.51
2018-09-28T21:10:20.667Z,59.11
2018-09-28T21:12:47.587Z,58.85
2018-09-28T21:15:14.462Z,60.03
2018-09-28T21:17:41.307Z,59.00
2018-09-28T21:20:08.173Z,60.12
2018-09-28T21:22:35.023Z,60.04
2018-09-28T21:25:01.923Z,59.85
2018-09-28T21:27:28.862Z,59.95
2018-09-28T21:29:55.782Z,60.36
2018-09-28T21:32:22.646Z,60.60
2018-09-28T21:34:49.547Z,60.04
2018-09-28T21:37:17.478Z,59.69
2018-09-28T21:39:44.367Z,60.73
2018-09-28T21:42:11.420Z,60.25
2018-09-28T21:44:38.294Z,59.56
2018-09-28T21:47:05.210Z,59.78
2018-09-28T21:49:32.074Z,59.30
2018-09-28T21:51:58.918Z,58.99
2018-09-28T21:54:25.749Z,59.59
2018-09-28T21:56:52.670Z,60.26
2018-09-28T21:59:19.618Z,59.95
2018-09-28T22:01:46.573Z,60.35
2018-09-28T22:04:13.419Z,60.20
2018-09-28T22:06:40.391Z,60.19
2018-09-28T22:09:07.346Z,60.60
2018-09-28T22:11:34.274Z,59.96
2018-09-28T22:14:01.144Z,60.34
2018-09-28T22:16:27.987Z,60.33
2018-09-28T22:18:54.869Z,61.01
2018-09-28T22:21:21.851Z,60.89
2018-09-28T22:23:48.670Z,61.68
2018-09-28T22:26:15.512Z,62.59
2018-09-28T22:28:42.366Z,62.13
2018-09-28T22:31:10.295Z,62.74
2018-09-28T22:33:37.214Z,62.79
2018-09-28T22:36:04.049Z,63.74
2018-09-28T22:38:30.909Z,63.87
2018-09-28T22:40:57.805Z,62.80
2018-09-28T22:43:24.722Z,62.83
2018-09-28T22:45:51.570Z,62.86
2018-09-28T22:48:18.433Z,62.30
2018-09-28T22:50:45.390Z,63.32
2018-09-28T22:53:12.442Z,62.50
2018-09-28T22:55:39.477Z,62.35
2018-09-28T22:58:07.382Z,63.01
2018-09-28T23:00:34.254Z,62.46
2018-09-28T23:03:01.197Z,62.60
2018-09-28T23:05:28.071Z,63.13
2018-09-28T23:07:55.006Z,63.37
2018-09-28T23:10:22.890Z,63.41
2018-09-28T23:12:49.767Z,64.00
2018-09-28T23:15:16.708Z,64.24
2018-09-28T23:17:43.526Z,63.46
2018-09-28T23:20:10.414Z,63.57
2018-09-28T23:22:37.266Z,63.47
2018-09-28T23:25:04.186Z,64.21
2018-09-28T23:27:31.020Z,64.57
2018-09-28T23:29:57.922Z,64.51
2018-09-28T23:32:25.606Z,64.24
2018-09-28T23:34:53.489Z,65.09
2018-09-28T23:37:20.550Z,65.47
2018-09-28T23:39:47.494Z,65.85
2018-09-28T23:42:14.385Z,65.80
2018-09-28T23:44:42.253Z,65.72
2018-09-28T23:47:09.189Z,66.60
2018-09-28T23:49:36.019Z,65.83
2018-09-28T23:52:02.909Z,66.38
2018-09-28T23:54:29.762Z,67.23
2018-09-28T23:56:56.610Z,67.26
2018-09-28T23:59:23.487Z,66.54
